createdAt,value
2022-08-06T00:01:02.331Z,0.00
2022-08-06T00:06:01.496Z,0.00
2022-08-06T00:11:00.889Z,0.00
2022-08-06T00:16:09.730Z,0.00
2022-08-06T00:20:59.139Z,0.00
2022-08-06T00:26:00.432Z,0.00
2022-08-06T00:30:58.309Z,0.00
2022-08-06T00:35:56.919Z,0.00
2022-08-06T00:40:58.897Z,0.00
2022-08-06T00:45:55.613Z,0.00
2022-08-06T00:50:55.609Z,0.00
2022-08-06T00:56:01.524Z,0.00
2022-08-06T01:00:53.939Z,0.00
2022-08-06T01:06:53.951Z,0.00
2022-08-06T01:10:53.463Z,0.00
2022-08-06T01:16:09.009Z,0.00
2022-08-06T01:21:58.299Z,0.00
2022-08-06T01:25:50.012Z,0.00
2022-08-06T01:30:48.372Z,0.00
2022-08-06T01:35:54.894Z,0.00
2022-08-06T01:40:46.786Z,0.00
2022-08-06T01:45:55.404Z,0.00
2022-08-06T01:50:45.110Z,0.00
2022-08-06T01:55:58.928Z,0.00
2022-08-06T02:00:46.486Z,0.00
2022-08-06T02:05:44.778Z,0.00
2022-08-06T02:10:42.995Z,0.00
2022-08-06T02:15:58.927Z,0.00
2022-08-06T02:20:42.256Z,0.00
2022-08-06T02:25:39.708Z,0.00
2022-08-06T02:30:42.626Z,0.00
2022-08-06T02:35:40.081Z,0.00
2022-08-06T02:40:39.899Z,0.00
2022-08-06T02:45:38.316Z,0.00
2022-08-06T02:50:36.903Z,0.00
2022-08-06T02:55:35.171Z,0.00
2022-08-06T03:00:34.330Z,0.00
2022-08-06T03:05:54.781Z,0.00
2022-08-06T03:10:32.789Z,0.00
2022-08-06T03:15:57.463Z,0.00
2022-08-06T03:20:32.236Z,0.00
2022-08-06T03:25:32.514Z,0.00
2022-08-06T03:30:33.737Z,0.00
2022-08-06T03:35:41.809Z,0.00
2022-08-06T03:40:28.318Z,0.00
2022-08-06T03:45:45.362Z,0.00
2022-08-06T03:50:27.858Z,0.00
2022-08-06T03:55:28.880Z,0.00
2022-08-06T04:00:28.441Z,4.00
2022-08-06T04:05:24.272Z,4.00
2022-08-06T04:10:34.372Z,4.00
2022-08-06T04:15:22.796Z,8.00
2022-08-06T04:20:41.257Z,12.00
2022-08-06T04:25:21.194Z,12.00
2022-08-06T04:30:20.465Z,12.00
2022-08-06T04:36:06.878Z,16.00
2022-08-06T04:40:27.370Z,20.00
2022-08-06T04:46:16.174Z,28.00
2022-08-06T04:50:17.954Z,32.00
2022-08-06T04:55:23.852Z,40.00
2022-08-06T05:00:16.525Z,52.00
2022-08-06T05:05:16.685Z,56.00
2022-08-06T05:10:13.971Z,60.00
2022-08-06T05:15:15.921Z,60.00
2022-08-06T05:20:26.352Z,56.00
2022-08-06T05:25:21.955Z,64.00
2022-08-06T05:30:11.750Z,80.00
2022-08-06T05:35:10.051Z,88.00
2022-08-06T05:40:09.760Z,76.00
2022-08-06T05:45:09.529Z,84.00
2022-08-06T05:50:09.833Z,88.00
2022-08-06T05:55:11.356Z,104.00
2022-08-06T06:00:06.456Z,116.00
2022-08-06T06:06:06.970Z,120.00
2022-08-06T06:10:05.816Z,116.00
2022-08-06T06:16:01.654Z,100.00
2022-08-06T06:20:08.247Z,88.00
2022-08-06T06:25:02.479Z,104.00
2022-08-06T06:30:09.167Z,84.00
2022-08-06T06:35:04.489Z,72.00
2022-08-06T06:40:02.156Z,72.00
2022-08-06T06:45:04.029Z,32.00
2022-08-06T06:50:03.958Z,20.00
2022-08-06T06:55:00.409Z,32.00
2022-08-06T07:00:04.157Z,64.00
2022-08-06T07:04:59.324Z,72.00
2022-08-06T07:09:59.877Z,72.00
2022-08-06T07:15:00.734Z,136.00
2022-08-06T07:19:54.324Z,184.00
2022-08-06T07:24:56.991Z,264.00
2022-08-06T07:30:00.332Z,356.00
2022-08-06T07:34:53.160Z,392.00
2022-08-06T07:39:51.120Z,396.00
2022-08-06T07:44:55.831Z,388.00
2022-08-06T07:50:00.224Z,380.00
2022-08-06T07:54:49.665Z,360.00
2022-08-06T07:59:53.498Z,400.00
2022-08-06T08:04:51.657Z,344.00
2022-08-06T08:10:02.080Z,388.00
2022-08-06T08:14:47.419Z,348.00
2022-08-06T08:19:44.782Z,216.00
2022-08-06T08:24:53.978Z,132.00
2022-08-06T08:29:51.436Z,140.00
2022-08-06T08:34:43.468Z,124.00
2022-08-06T08:39:42.778Z,136.00
2022-08-06T08:44:41.014Z,140.00
2022-08-06T08:49:46.790Z,148.00
2022-08-06T08:54:40.546Z,148.00
2022-08-06T08:59:59.437Z,140.00
2022-08-06T09:04:39.004Z,144.00
2022-08-06T09:09:37.311Z,160.00
2022-08-06T09:14:36.506Z,196.00
2022-08-06T09:19:37.175Z,184.00
2022-08-06T09:24:35.636Z,208.00
2022-08-06T09:29:35.509Z,196.00
2022-08-06T09:34:39.324Z,192.00
2022-08-06T09:39:46.665Z,168.00
2022-08-06T09:44:37.232Z,176.00
2022-08-06T09:49:45.694Z,156.00
2022-08-06T09:54:32.263Z,176.00
2022-08-06T09:59:33.390Z,180.00
2022-08-06T10:04:35.932Z,172.00
2022-08-06T10:09:41.400Z,168.00
2022-08-06T10:14:29.255Z,252.00
2022-08-06T10:19:26.341Z,212.00
2022-08-06T10:24:42.290Z,236.00
2022-08-06T10:29:25.710Z,244.00
2022-08-06T10:34:23.966Z,224.00
2022-08-06T10:40:07.599Z,196.00
2022-08-06T10:44:28.523Z,204.00
2022-08-06T10:50:30.211Z,228.00
2022-08-06T10:54:22.487Z,252.00
2022-08-06T10:59:25.794Z,232.00
2022-08-06T11:04:20.039Z,224.00
2022-08-06T11:09:17.406Z,264.00
2022-08-06T11:14:19.707Z,304.00
2022-08-06T11:19:16.991Z,236.00
2022-08-06T11:24:17.198Z,300.00
2022-08-06T11:29:15.734Z,324.00
2022-08-06T11:34:14.608Z,320.00
2022-08-06T11:39:17.722Z,412.00
2022-08-06T11:44:17.060Z,356.00
2022-08-06T11:49:12.344Z,332.00
2022-08-06T11:54:12.547Z,276.00
2022-08-06T11:59:12.868Z,296.00
2022-08-06T12:04:11.091Z,288.00
2022-08-06T12:09:13.155Z,348.00
2022-08-06T12:14:32.881Z,316.00
2022-08-06T12:19:08.748Z,308.00
2022-08-06T12:24:06.896Z,308.00
2022-08-06T12:29:06.164Z,280.00
2022-08-06T12:34:05.451Z,224.00
2022-08-06T12:39:04.898Z,208.00
2022-08-06T12:44:05.093Z,188.00
2022-08-06T12:49:03.698Z,212.00
2022-08-06T12:54:02.512Z,216.00
2022-08-06T12:59:01.786Z,208.00
2022-08-06T13:04:06.736Z,164.00
2022-08-06T13:09:01.162Z,172.00
2022-08-06T13:14:13.860Z,176.00
2022-08-06T13:18:59.465Z,168.00
2022-08-06T13:23:57.620Z,176.00
2022-08-06T13:30:34.615Z,176.00
2022-08-06T13:34:04.812Z,164.00
2022-08-06T13:38:56.311Z,172.00
2022-08-06T13:43:55.782Z,164.00
2022-08-06T13:48:54.907Z,264.00
2022-08-06T13:53:53.222Z,216.00
2022-08-06T13:58:52.383Z,212.00
2022-08-06T14:03:51.748Z,272.00
2022-08-06T14:08:51.952Z,284.00
2022-08-06T14:13:51.247Z,316.00
2022-08-06T14:19:03.560Z,224.00
2022-08-06T14:24:00.234Z,236.00
2022-08-06T14:28:54.611Z,296.00
2022-08-06T14:33:59.462Z,232.00
2022-08-06T14:38:47.295Z,196.00
2022-08-06T14:43:55.852Z,148.00
2022-08-06T14:48:44.708Z,196.00
2022-08-06T14:53:45.057Z,140.00
2022-08-06T14:58:44.270Z,140.00
2022-08-06T15:03:43.640Z,152.00
2022-08-06T15:08:48.506Z,140.00
2022-08-06T15:13:40.985Z,132.00
2022-08-06T15:19:09.997Z,152.00
2022-08-06T15:23:52.764Z,200.00
2022-08-06T15:28:38.779Z,224.00
2022-08-06T15:33:38.985Z,188.00
2022-08-06T15:38:37.595Z,208.00
2022-08-06T15:43:43.824Z,144.00
2022-08-06T15:48:35.650Z,208.00
2022-08-06T15:53:36.731Z,284.00
2022-08-06T15:58:35.050Z,316.00
2022-08-06T16:03:33.326Z,328.00
2022-08-06T16:08:41.289Z,196.00
2022-08-06T16:13:32.721Z,160.00
2022-08-06T16:18:32.264Z,124.00
2022-08-06T16:23:57.069Z,172.00
2022-08-06T16:28:33.776Z,168.00
2022-08-06T16:33:30.633Z,132.00
2022-08-06T16:38:31.394Z,148.00
2022-08-06T16:43:27.139Z,108.00
2022-08-06T16:48:28.114Z,108.00
2022-08-06T16:54:08.383Z,124.00
2022-08-06T16:58:34.277Z,104.00
2022-08-06T17:03:43.006Z,76.00
2022-08-06T17:08:24.569Z,96.00
2022-08-06T17:13:38.454Z,92.00
2022-08-06T17:18:28.646Z,100.00
2022-08-06T17:23:22.278Z,72.00
2022-08-06T17:28:24.752Z,44.00
2022-08-06T17:33:23.021Z,52.00
2022-08-06T17:38:18.986Z,52.00
2022-08-06T17:43:22.412Z,48.00
2022-08-06T17:48:24.560Z,44.00
2022-08-06T17:53:18.950Z,48.00
2022-08-06T17:58:38.488Z,40.00
2022-08-06T18:03:23.784Z,40.00
2022-08-06T18:08:35.688Z,40.00
2022-08-06T18:13:14.739Z,36.00
2022-08-06T18:18:15.410Z,32.00
2022-08-06T18:23:20.108Z,24.00
2022-08-06T18:28:12.561Z,24.00
2022-08-06T18:33:12.682Z,20.00
2022-08-06T18:38:11.127Z,12.00
2022-08-06T18:43:11.389Z,8.00
2022-08-06T18:48:08.466Z,8.00
2022-08-06T18:53:08.694Z,4.00
2022-08-06T18:58:13.514Z,0.00
2022-08-06T19:03:11.164Z,4.00
2022-08-06T19:08:05.798Z,0.00
2022-08-06T19:13:08.462Z,4.00
2022-08-06T19:18:13.737Z,4.00
2022-08-06T19:23:06.493Z,4.00
2022-08-06T19:28:07.181Z,0.00
2022-08-06T19:33:15.730Z,4.00
2022-08-06T19:38:01.290Z,4.00
2022-08-06T19:44:26.722Z,4.00
2022-08-06T19:47:59.604Z,4.00
2022-08-06T19:52:59.881Z,4.00
2022-08-06T19:57:59.156Z,4.00
2022-08-06T20:03:00.403Z,4.00
2022-08-06T20:08:32.431Z,4.00
2022-08-06T20:12:57.308Z,4.00
2022-08-06T20:17:55.368Z,4.00
2022-08-06T20:22:56.421Z,4.00
2022-08-06T20:29:08.030Z,4.00
2022-08-06T20:32:54.823Z,4.00
2022-08-06T20:37:54.741Z,4.00
2022-08-06T20:42:51.543Z,4.00
2022-08-06T20:47:50.746Z,4.00
2022-08-06T20:52:49.937Z,4.00
2022-08-06T20:57:53.129Z,4.00
2022-08-06T21:03:02.959Z,4.00
2022-08-06T21:07:56.879Z,4.00
2022-08-06T21:12:58.683Z,4.00
2022-08-06T21:17:47.078Z,4.00
2022-08-06T21:22:45.343Z,4.00
2022-08-06T21:27:44.515Z,4.00
2022-08-06T21:32:43.721Z,4.00
2022-08-06T21:38:00.432Z,4.00
2022-08-06T21:42:42.077Z,4.00
2022-08-06T21:47:47.191Z,4.00
2022-08-06T21:52:41.549Z,4.00
2022-08-06T21:57:47.512Z,4.00
2022-08-06T22:02:39.142Z,4.00
2022-08-06T22:08:05.707Z,4.00
2022-08-06T22:13:15.315Z,4.00
2022-08-06T22:18:01.799Z,4.00
2022-08-06T22:22:36.067Z,4.00
2022-08-06T22:27:41.607Z,4.00
2022-08-06T22:32:35.981Z,4.00
2022-08-06T22:38:15.154Z,4.00
2022-08-06T22:42:56.462Z,4.00
2022-08-06T22:47:36.680Z,4.00
2022-08-06T22:52:58.920Z,4.00
2022-08-06T22:57:37.290Z,4.00
2022-08-06T23:02:31.124Z,4.00
2022-08-06T23:07:43.210Z,4.00
2022-08-06T23:12:31.566Z,4.00
2022-08-06T23:17:40.091Z,4.00
2022-08-06T23:22:29.143Z,4.00
2022-08-06T23:27:26.243Z,4.00
2022-08-06T23:32:30.261Z,4.00
2022-08-06T23:37:26.552Z,4.00
2022-08-06T23:42:24.929Z,4.00
2022-08-06T23:47:53.221Z,4.00
2022-08-06T23:52:23.935Z,4.00
2022-08-06T23:57:32.684Z,4.00
